sensor_id;sensor_type;location;lat;lon;timestamp;P1;durP1;ratioP1;P2;durP2;ratioP2
3000;SDS011;1510;51.072;6.678;2023-04-24T00:02:02;4.13;;;2.07;;
3000;SDS011;1510;51.072;6.678;2023-04-24T00:04:33;4.00;;;1.90;;
3000;SDS011;1510;51.072;6.678;2023-04-24T00:07:09;6.13;;;2.10;;
3000;SDS011;1510;51.072;6.678;2023-04-24T00:09:38;4.40;;;2.50;;
3000;SDS011;1510;51.072;6.678;2023-04-24T00:12:05;4.80;;;2.40;;
3000;SDS011;1510;51.072;6.678;2023-04-24T00:14:32;5.27;;;2.60;;
3000;SDS011;1510;51.072;6.678;2023-04-24T00:17:00;4.30;;;2.80;;
3000;SDS011;1510;51.072;6.678;2023-04-24T00:19:27;4.10;;;2.23;;
3000;SDS011;1510;51.072;6.678;2023-04-24T00:21:55;6.20;;;2.63;;
3000;SDS011;1510;51.072;6.678;2023-04-24T00:24:22;5.10;;;2.47;;
3000;SDS011;1510;51.072;6.678;2023-04-24T00:26:49;4.37;;;2.87;;
3000;SDS011;1510;51.072;6.678;2023-04-24T00:29:16;4.43;;;2.47;;
3000;SDS011;1510;51.072;6.678;2023-04-24T00:31:43;4.60;;;2.37;;
3000;SDS011;1510;51.072;6.678;2023-04-24T00:34:12;7.70;;;2.23;;
3000;SDS011;1510;51.072;6.678;2023-04-24T00:36:40;5.20;;;2.80;;
3000;SDS011;1510;51.072;6.678;2023-04-24T00:39:08;8.40;;;2.83;;
3000;SDS011;1510;51.072;6.678;2023-04-24T00:41:35;5.70;;;2.27;;
3000;SDS011;1510;51.072;6.678;2023-04-24T00:44:05;5.63;;;2.10;;
3000;SDS011;1510;51.072;6.678;2023-04-24T00:46:32;5.20;;;2.13;;
3000;SDS011;1510;51.072;6.678;2023-04-24T00:48:59;4.80;;;2.67;;
3000;SDS011;1510;51.072;6.678;2023-04-24T00:51:26;8.77;;;2.33;;
3000;SDS011;1510;51.072;6.678;2023-04-24T00:53:53;4.20;;;1.90;;
3000;SDS011;1510;51.072;6.678;2023-04-24T00:56:22;6.67;;;2.57;;
3000;SDS011;1510;51.072;6.678;2023-04-24T00:58:49;6.53;;;2.73;;
3000;SDS011;1510;51.072;6.678;2023-04-24T01:01:17;5.03;;;1.90;;
3000;SDS011;1510;51.072;6.678;2023-04-24T01:03:45;6.57;;;3.10;;
3000;SDS011;1510;51.072;6.678;2023-04-24T01:06:15;6.73;;;3.17;;
3000;SDS011;1510;51.072;6.678;2023-04-24T01:08:45;6.33;;;3.07;;
3000;SDS011;1510;51.072;6.678;2023-04-24T01:11:14;7.03;;;3.83;;
3000;SDS011;1510;51.072;6.678;2023-04-24T01:13:42;7.20;;;3.60;;
3000;SDS011;1510;51.072;6.678;2023-04-24T01:16:11;7.80;;;4.67;;
3000;SDS011;1510;51.072;6.678;2023-04-24T01:18:38;9.20;;;5.17;;
3000;SDS011;1510;51.072;6.678;2023-04-24T01:21:06;15.90;;;5.90;;
3000;SDS011;1510;51.072;6.678;2023-04-24T01:23:36;9.17;;;5.07;;
3000;SDS011;1510;51.072;6.678;2023-04-24T01:26:03;10.13;;;4.90;;
3000;SDS011;1510;51.072;6.678;2023-04-24T01:28:31;9.73;;;5.40;;
3000;SDS011;1510;51.072;6.678;2023-04-24T01:30:58;8.83;;;4.67;;
3000;SDS011;1510;51.072;6.678;2023-04-24T01:33:25;7.80;;;5.67;;
3000;SDS011;1510;51.072;6.678;2023-04-24T01:35:54;11.93;;;5.80;;
3000;SDS011;1510;51.072;6.678;2023-04-24T01:38:22;12.57;;;7.03;;
3000;SDS011;1510;51.072;6.678;2023-04-24T01:40:50;12.87;;;7.47;;
3000;SDS011;1510;51.072;6.678;2023-04-24T01:43:19;10.80;;;7.40;;
3000;SDS011;1510;51.072;6.678;2023-04-24T01:45:46;17.30;;;7.70;;
3000;SDS011;1510;51.072;6.678;2023-04-24T01:48:13;9.73;;;7.30;;
3000;SDS011;1510;51.072;6.678;2023-04-24T01:50:40;12.90;;;7.10;;
3000;SDS011;1510;51.072;6.678;2023-04-24T01:53:10;11.83;;;7.87;;
3000;SDS011;1510;51.072;6.678;2023-04-24T01:55:37;10.87;;;6.70;;
3000;SDS011;1510;51.072;6.678;2023-04-24T01:58:05;12.30;;;6.43;;
3000;SDS011;1510;51.072;6.678;2023-04-24T02:00:35;10.70;;;7.53;;
3000;SDS011;1510;51.072;6.678;2023-04-24T02:03:07;11.83;;;7.77;;
3000;SDS011;1510;51.072;6.678;2023-04-24T02:05:34;10.70;;;6.50;;
3000;SDS011;1510;51.072;6.678;2023-04-24T02:08:04;11.80;;;7.60;;
3000;SDS011;1510;51.072;6.678;2023-04-24T02:10:31;16.93;;;8.40;;
3000;SDS011;1510;51.072;6.678;2023-04-24T02:12:58;18.33;;;8.60;;
3000;SDS011;1510;51.072;6.678;2023-04-24T02:15:31;17.30;;;10.60;;
3000;SDS011;1510;51.072;6.678;2023-04-24T02:18:00;12.70;;;8.90;;
3000;SDS011;1510;51.072;6.678;2023-04-24T02:20:27;13.47;;;8.67;;
3000;SDS011;1510;51.072;6.678;2023-04-24T02:33:39;15.93;;;8.30;;
3000;SDS011;1510;51.072;6.678;2023-04-24T02:36:07;15.77;;;7.97;;
3000;SDS011;1510;51.072;6.678;2023-04-24T02:38:35;12.70;;;8.70;;
3000;SDS011;1510;51.072;6.678;2023-04-24T02:41:11;18.43;;;9.73;;
3000;SDS011;1510;51.072;6.678;2023-04-24T02:43:44;15.13;;;9.00;;
3000;SDS011;1510;51.072;6.678;2023-04-24T02:46:14;15.30;;;9.73;;
3000;SDS011;1510;51.072;6.678;2023-04-24T02:48:53;15.30;;;8.93;;
3000;SDS011;1510;51.072;6.678;2023-04-24T02:51:28;11.60;;;8.50;;
3000;SDS011;1510;51.072;6.678;2023-04-24T02:53:55;15.20;;;9.40;;
3000;SDS011;1510;51.072;6.678;2023-04-24T02:56:27;14.97;;;9.33;;
3000;SDS011;1510;51.072;6.678;2023-04-24T02:58:59;12.80;;;7.50;;
3000;SDS011;1510;51.072;6.678;2023-04-24T03:01:31;14.20;;;7.63;;
3000;SDS011;1510;51.072;6.678;2023-04-24T03:04:00;16.60;;;8.00;;
3000;SDS011;1510;51.072;6.678;2023-04-24T03:06:52;12.07;;;7.47;;
3000;SDS011;1510;51.072;6.678;2023-04-24T03:09:41;12.03;;;7.80;;
3000;SDS011;1510;51.072;6.678;2023-04-24T03:12:09;16.53;;;9.20;;
3000;SDS011;1510;51.072;6.678;2023-04-24T03:14:39;13.97;;;7.40;;
3000;SDS011;1510;51.072;6.678;2023-04-24T03:17:10;17.60;;;8.47;;
3000;SDS011;1510;51.072;6.678;2023-04-24T03:19:42;13.50;;;8.50;;
3000;SDS011;1510;51.072;6.678;2023-04-24T03:22:17;16.73;;;7.87;;
3000;SDS011;1510;51.072;6.678;2023-04-24T03:24:47;15.00;;;7.90;;
3000;SDS011;1510;51.072;6.678;2023-04-24T03:27:14;16.67;;;8.60;;
3000;SDS011;1510;51.072;6.678;2023-04-24T03:29:41;13.57;;;8.70;;
3000;SDS011;1510;51.072;6.678;2023-04-24T03:32:10;12.80;;;8.87;;
3000;SDS011;1510;51.072;6.678;2023-04-24T03:34:36;12.23;;;7.07;;
3000;SDS011;1510;51.072;6.678;2023-04-24T03:37:05;14.03;;;8.10;;
3000;SDS011;1510;51.072;6.678;2023-04-24T03:39:31;46.83;;;24.30;;
3000;SDS011;1510;51.072;6.678;2023-04-24T03:41:59;12.63;;;8.10;;
3000;SDS011;1510;51.072;6.678;2023-04-24T03:44:26;15.33;;;9.03;;
3000;SDS011;1510;51.072;6.678;2023-04-24T03:46:54;13.80;;;7.80;;
3000;SDS011;1510;51.072;6.678;2023-04-24T03:49:21;15.67;;;8.10;;
3000;SDS011;1510;51.072;6.678;2023-04-24T03:51:47;16.03;;;8.33;;
3000;SDS011;1510;51.072;6.678;2023-04-24T03:54:19;13.60;;;7.90;;
3000;SDS011;1510;51.072;6.678;2023-04-24T03:56:49;14.50;;;8.20;;
3000;SDS011;1510;51.072;6.678;2023-04-24T03:59:19;12.80;;;8.10;;
3000;SDS011;1510;51.072;6.678;2023-04-24T04:01:46;19.53;;;8.70;;
3000;SDS011;1510;51.072;6.678;2023-04-24T04:04:15;17.00;;;9.43;;
3000;SDS011;1510;51.072;6.678;2023-04-24T04:06:45;15.27;;;10.20;;
3000;SDS011;1510;51.072;6.678;2023-04-24T04:09:12;12.67;;;8.07;;
3000;SDS011;1510;51.072;6.678;2023-04-24T04:11:47;13.23;;;8.00;;
3000;SDS011;1510;51.072;6.678;2023-04-24T04:14:14;18.97;;;9.37;;
3000;SDS011;1510;51.072;6.678;2023-04-24T04:22:56;17.07;;;8.80;;
3000;SDS011;1510;51.072;6.678;2023-04-24T04:25:28;16.40;;;7.93;;
3000;SDS011;1510;51.072;6.678;2023-04-24T04:28:01;27.40;;;8.27;;
3000;SDS011;1510;51.072;6.678;2023-04-24T04:30:32;12.57;;;7.60;;
3000;SDS011;1510;51.072;6.678;2023-04-24T04:33:02;14.40;;;6.73;;
3000;SDS011;1510;51.072;6.678;2023-04-24T04:35:29;10.30;;;6.30;;
3000;SDS011;1510;51.072;6.678;2023-04-24T04:37:56;14.30;;;8.70;;
3000;SDS011;1510;51.072;6.678;2023-04-24T04:40:47;14.03;;;8.37;;
3000;SDS011;1510;51.072;6.678;2023-04-24T04:43:20;11.97;;;7.17;;
3000;SDS011;1510;51.072;6.678;2023-04-24T04:45:47;13.00;;;7.00;;
3000;SDS011;1510;51.072;6.678;2023-04-24T04:48:27;9.67;;;6.23;;
3000;SDS011;1510;51.072;6.678;2023-04-24T04:51:05;18.17;;;8.13;;
3000;SDS011;1510;51.072;6.678;2023-04-24T04:53:37;13.20;;;7.07;;
3000;SDS011;1510;51.072;6.678;2023-04-24T04:56:04;11.60;;;7.57;;
3000;SDS011;1510;51.072;6.678;2023-04-24T04:58:33;8.83;;;5.60;;
3000;SDS011;1510;51.072;6.678;2023-04-24T05:01:00;14.43;;;6.63;;
3000;SDS011;1510;51.072;6.678;2023-04-24T05:03:27;10.37;;;7.07;;
3000;SDS011;1510;51.072;6.678;2023-04-24T05:05:55;10.10;;;6.87;;
3000;SDS011;1510;51.072;6.678;2023-04-24T05:08:23;13.70;;;7.47;;
3000;SDS011;1510;51.072;6.678;2023-04-24T05:10:50;10.80;;;6.53;;
3000;SDS011;1510;51.072;6.678;2023-04-24T05:13:17;11.90;;;6.40;;
3000;SDS011;1510;51.072;6.678;2023-04-24T05:15:45;12.40;;;7.60;;
3000;SDS011;1510;51.072;6.678;2023-04-24T05:18:12;10.93;;;6.63;;
3000;SDS011;1510;51.072;6.678;2023-04-24T05:20:40;14.30;;;8.03;;
3000;SDS011;1510;51.072;6.678;2023-04-24T05:23:08;14.43;;;9.50;;
3000;SDS011;1510;51.072;6.678;2023-04-24T05:25:36;12.40;;;8.87;;
3000;SDS011;1510;51.072;6.678;2023-04-24T05:28:05;19.37;;;17.67;;
3000;SDS011;1510;51.072;6.678;2023-04-24T05:30:33;26.60;;;24.60;;
3000;SDS011;1510;51.072;6.678;2023-04-24T05:33:01;30.57;;;28.57;;
3000;SDS011;1510;51.072;6.678;2023-04-24T05:35:29;38.87;;;36.40;;
3000;SDS011;1510;51.072;6.678;2023-04-24T05:37:57;44.80;;;42.20;;
3000;SDS011;1510;51.072;6.678;2023-04-24T05:40:24;31.87;;;29.70;;
3000;SDS011;1510;51.072;6.678;2023-04-24T05:42:51;29.17;;;27.27;;
3000;SDS011;1510;51.072;6.678;2023-04-24T05:45:18;25.00;;;23.27;;
3000;SDS011;1510;51.072;6.678;2023-04-24T05:47:47;18.80;;;16.17;;
3000;SDS011;1510;51.072;6.678;2023-04-24T05:50:17;19.37;;;17.87;;
3000;SDS011;1510;51.072;6.678;2023-04-24T05:52:44;20.80;;;19.10;;
3000;SDS011;1510;51.072;6.678;2023-04-24T05:55:11;19.20;;;17.40;;
3000;SDS011;1510;51.072;6.678;2023-04-24T05:57:38;18.87;;;17.27;;
3000;SDS011;1510;51.072;6.678;2023-04-24T06:00:06;17.07;;;15.67;;
3000;SDS011;1510;51.072;6.678;2023-04-24T06:02:34;11.87;;;10.77;;
3000;SDS011;1510;51.072;6.678;2023-04-24T06:05:01;15.00;;;9.80;;
3000;SDS011;1510;51.072;6.678;2023-04-24T06:07:31;11.63;;;9.83;;
3000;SDS011;1510;51.072;6.678;2023-04-24T06:09:58;12.03;;;11.00;;
3000;SDS011;1510;51.072;6.678;2023-04-24T06:12:25;27.57;;;25.60;;
3000;SDS011;1510;51.072;6.678;2023-04-24T06:14:52;50.47;;;47.87;;
3000;SDS011;1510;51.072;6.678;2023-04-24T06:17:20;44.27;;;42.07;;
3000;SDS011;1510;51.072;6.678;2023-04-24T06:19:48;218.53;;;211.33;;
3000;SDS011;1510;51.072;6.678;2023-04-24T06:22:14;302.93;;;293.73;;
3000;SDS011;1510;51.072;6.678;2023-04-24T06:24:43;337.07;;;326.07;;
3000;SDS011;1510;51.072;6.678;2023-04-24T06:27:10;493.17;;;477.40;;
3000;SDS011;1510;51.072;6.678;2023-04-24T06:29:37;558.40;;;538.50;;
3000;SDS011;1510;51.072;6.678;2023-04-24T06:32:04;627.27;;;601.33;;
3000;SDS011;1510;51.072;6.678;2023-04-24T06:34:31;665.83;;;635.97;;
3000;SDS011;1510;51.072;6.678;2023-04-24T06:36:59;655.57;;;627.97;;
3000;SDS011;1510;51.072;6.678;2023-04-24T06:39:26;691.20;;;658.87;;
3000;SDS011;1510;51.072;6.678;2023-04-24T06:41:54;694.67;;;660.70;;
3000;SDS011;1510;51.072;6.678;2023-04-24T06:44:21;715.63;;;679.73;;
3000;SDS011;1510;51.072;6.678;2023-04-24T06:46:48;666.97;;;637.80;;
3000;SDS011;1510;51.072;6.678;2023-04-24T06:49:15;628.20;;;603.23;;
3000;SDS011;1510;51.072;6.678;2023-04-24T06:51:42;663.47;;;634.93;;
3000;SDS011;1510;51.072;6.678;2023-04-24T06:54:09;678.40;;;648.10;;
3000;SDS011;1510;51.072;6.678;2023-04-24T06:56:37;618.80;;;594.60;;
3000;SDS011;1510;51.072;6.678;2023-04-24T06:59:05;527.20;;;509.33;;
3000;SDS011;1510;51.072;6.678;2023-04-24T07:01:32;423.40;;;410.70;;
3000;SDS011;1510;51.072;6.678;2023-04-24T07:04:00;393.17;;;381.47;;
3000;SDS011;1510;51.072;6.678;2023-04-24T07:06:27;295.07;;;286.40;;
3000;SDS011;1510;51.072;6.678;2023-04-24T07:08:56;230.43;;;223.47;;
3000;SDS011;1510;51.072;6.678;2023-04-24T07:11:23;387.07;;;375.47;;
3000;SDS011;1510;51.072;6.678;2023-04-24T07:13:54;437.23;;;423.53;;
3000;SDS011;1510;51.072;6.678;2023-04-24T07:16:23;520.73;;;503.53;;
3000;SDS011;1510;51.072;6.678;2023-04-24T07:18:50;596.73;;;574.70;;
3000;SDS011;1510;51.072;6.678;2023-04-24T07:21:18;668.83;;;639.63;;
3000;SDS011;1510;51.072;6.678;2023-04-24T07:23:45;656.03;;;628.63;;
3000;SDS011;1510;51.072;6.678;2023-04-24T07:26:12;635.40;;;610.13;;
3000;SDS011;1510;51.072;6.678;2023-04-24T07:28:40;633.07;;;607.57;;
3000;SDS011;1510;51.072;6.678;2023-04-24T07:31:07;638.63;;;611.97;;
3000;SDS011;1510;51.072;6.678;2023-04-24T07:33:36;625.17;;;600.03;;
3000;SDS011;1510;51.072;6.678;2023-04-24T07:36:03;694.03;;;659.17;;
3000;SDS011;1510;51.072;6.678;2023-04-24T07:38:30;574.67;;;554.27;;
3000;SDS011;1510;51.072;6.678;2023-04-24T07:40:57;138.63;;;134.10;;
3000;SDS011;1510;51.072;6.678;2023-04-24T07:43:24;183.73;;;177.83;;
3000;SDS011;1510;51.072;6.678;2023-04-24T07:45:52;193.10;;;187.17;;
3000;SDS011;1510;51.072;6.678;2023-04-24T07:48:19;200.10;;;194.00;;
3000;SDS011;1510;51.072;6.678;2023-04-24T07:50:48;83.53;;;80.60;;
3000;SDS011;1510;51.072;6.678;2023-04-24T07:53:15;137.23;;;132.83;;
3000;SDS011;1510;51.072;6.678;2023-04-24T07:55:42;181.40;;;175.73;;
3000;SDS011;1510;51.072;6.678;2023-04-24T07:58:09;260.57;;;252.47;;
3000;SDS011;1510;51.072;6.678;2023-04-24T08:00:36;292.77;;;283.33;;
3000;SDS011;1510;51.072;6.678;2023-04-24T08:03:03;338.20;;;327.03;;
3000;SDS011;1510;51.072;6.678;2023-04-24T08:05:30;348.90;;;337.07;;
3000;SDS011;1510;51.072;6.678;2023-04-24T08:07:59;383.90;;;370.07;;
3000;SDS011;1510;51.072;6.678;2023-04-24T08:10:26;483.60;;;464.03;;
3000;SDS011;1510;51.072;6.678;2023-04-24T08:12:52;363.03;;;349.83;;
3000;SDS011;1510;51.072;6.678;2023-04-24T08:15:20;476.07;;;456.17;;
3000;SDS011;1510;51.072;6.678;2023-04-24T08:17:47;407.60;;;392.60;;
3000;SDS011;1510;51.072;6.678;2023-04-24T08:20:14;414.00;;;398.40;;
3000;SDS011;1510;51.072;6.678;2023-04-24T08:22:42;376.97;;;363.40;;
3000;SDS011;1510;51.072;6.678;2023-04-24T08:25:11;304.07;;;294.13;;
3000;SDS011;1510;51.072;6.678;2023-04-24T08:27:37;188.33;;;182.33;;
3000;SDS011;1510;51.072;6.678;2023-04-24T08:30:05;252.53;;;243.20;;
3000;SDS011;1510;51.072;6.678;2023-04-24T08:32:33;198.07;;;191.53;;
3000;SDS011;1510;51.072;6.678;2023-04-24T08:34:59;183.07;;;177.13;;
3000;SDS011;1510;51.072;6.678;2023-04-24T08:37:27;123.00;;;118.73;;
3000;SDS011;1510;51.072;6.678;2023-04-24T08:39:53;197.50;;;190.80;;
3000;SDS011;1510;51.072;6.678;2023-04-24T08:42:22;189.23;;;183.13;;
3000;SDS011;1510;51.072;6.678;2023-04-24T08:44:52;273.83;;;264.93;;
3000;SDS011;1510;51.072;6.678;2023-04-24T08:47:32;315.97;;;305.17;;
3000;SDS011;1510;51.072;6.678;2023-04-24T08:50:02;244.37;;;236.50;;
3000;SDS011;1510;51.072;6.678;2023-04-24T08:52:31;254.17;;;245.47;;
3000;SDS011;1510;51.072;6.678;2023-04-24T08:54:59;256.03;;;247.63;;
3000;SDS011;1510;51.072;6.678;2023-04-24T08:57:29;272.87;;;263.67;;
3000;SDS011;1510;51.072;6.678;2023-04-24T08:59:57;256.53;;;248.23;;
3000;SDS011;1510;51.072;6.678;2023-04-24T09:02:25;405.63;;;390.17;;
3000;SDS011;1510;51.072;6.678;2023-04-24T09:04:53;321.10;;;309.90;;
3000;SDS011;1510;51.072;6.678;2023-04-24T09:07:22;217.07;;;209.83;;
3000;SDS011;1510;51.072;6.678;2023-04-24T09:09:50;232.93;;;224.33;;
3000;SDS011;1510;51.072;6.678;2023-04-24T09:12:18;296.70;;;285.90;;
3000;SDS011;1510;51.072;6.678;2023-04-24T09:14:47;313.53;;;302.13;;
3000;SDS011;1510;51.072;6.678;2023-04-24T09:17:15;370.90;;;356.57;;
3000;SDS011;1510;51.072;6.678;2023-04-24T09:19:42;377.10;;;362.80;;
3000;SDS011;1510;51.072;6.678;2023-04-24T09:22:09;322.73;;;310.63;;
3000;SDS011;1510;51.072;6.678;2023-04-24T09:24:37;356.40;;;342.40;;
3000;SDS011;1510;51.072;6.678;2023-04-24T09:27:05;403.17;;;386.77;;
3000;SDS011;1510;51.072;6.678;2023-04-24T09:29:32;395.97;;;380.10;;
3000;SDS011;1510;51.072;6.678;2023-04-24T09:32:01;439.60;;;419.67;;
3000;SDS011;1510;51.072;6.678;2023-04-24T09:34:46;409.67;;;393.20;;
3000;SDS011;1510;51.072;6.678;2023-04-24T09:37:20;419.80;;;402.43;;
3000;SDS011;1510;51.072;6.678;2023-04-24T09:40:06;385.90;;;370.63;;
3000;SDS011;1510;51.072;6.678;2023-04-24T09:42:35;475.73;;;453.73;;
3000;SDS011;1510;51.072;6.678;2023-04-24T09:45:02;422.10;;;404.10;;
3000;SDS011;1510;51.072;6.678;2023-04-24T09:47:34;425.37;;;406.90;;
3000;SDS011;1510;51.072;6.678;2023-04-24T09:50:13;364.40;;;349.77;;
3000;SDS011;1510;51.072;6.678;2023-04-24T09:52:41;344.17;;;330.53;;
3000;SDS011;1510;51.072;6.678;2023-04-24T09:55:13;317.50;;;304.20;;
3000;SDS011;1510;51.072;6.678;2023-04-24T09:57:49;273.53;;;262.33;;
3000;SDS011;1510;51.072;6.678;2023-04-24T10:00:18;268.20;;;257.80;;
3000;SDS011;1510;51.072;6.678;2023-04-24T10:02:52;289.20;;;277.83;;
3000;SDS011;1510;51.072;6.678;2023-04-24T10:05:22;336.37;;;322.50;;
3000;SDS011;1510;51.072;6.678;2023-04-24T10:07:51;282.23;;;270.77;;
3000;SDS011;1510;51.072;6.678;2023-04-24T10:10:22;200.33;;;192.53;;
3000;SDS011;1510;51.072;6.678;2023-04-24T10:12:50;194.87;;;186.37;;
3000;SDS011;1510;51.072;6.678;2023-04-24T10:15:19;178.77;;;171.53;;
3000;SDS011;1510;51.072;6.678;2023-04-24T10:17:47;188.67;;;181.57;;
3000;SDS011;1510;51.072;6.678;2023-04-24T10:20:18;159.20;;;153.10;;
3000;SDS011;1510;51.072;6.678;2023-04-24T10:22:47;112.10;;;107.50;;
3000;SDS011;1510;51.072;6.678;2023-04-24T10:25:16;137.30;;;132.13;;
3000;SDS011;1510;51.072;6.678;2023-04-24T10:27:44;156.20;;;150.37;;
3000;SDS011;1510;51.072;6.678;2023-04-24T10:30:12;107.53;;;103.63;;
3000;SDS011;1510;51.072;6.678;2023-04-24T10:32:40;166.20;;;160.23;;
3000;SDS011;1510;51.072;6.678;2023-04-24T10:35:07;116.53;;;112.00;;
3000;SDS011;1510;51.072;6.678;2023-04-24T10:37:37;90.70;;;86.80;;
3000;SDS011;1510;51.072;6.678;2023-04-24T10:40:07;110.43;;;105.93;;
3000;SDS011;1510;51.072;6.678;2023-04-24T10:42:35;143.40;;;137.90;;
3000;SDS011;1510;51.072;6.678;2023-04-24T10:45:06;119.03;;;112.93;;
3000;SDS011;1510;51.072;6.678;2023-04-24T10:47:42;91.60;;;87.80;;
3000;SDS011;1510;51.072;6.678;2023-04-24T10:50:17;117.37;;;113.20;;
3000;SDS011;1510;51.072;6.678;2023-04-24T10:52:45;88.00;;;84.43;;
3000;SDS011;1510;51.072;6.678;2023-04-24T10:55:13;118.73;;;114.43;;
3000;SDS011;1510;51.072;6.678;2023-04-24T10:57:46;150.80;;;145.53;;
3000;SDS011;1510;51.072;6.678;2023-04-24T11:00:28;150.43;;;144.27;;
3000;SDS011;1510;51.072;6.678;2023-04-24T11:02:56;122.57;;;117.00;;
3000;SDS011;1510;51.072;6.678;2023-04-24T11:05:48;125.80;;;120.97;;
3000;SDS011;1510;51.072;6.678;2023-04-24T11:08:22;188.13;;;181.23;;
3000;SDS011;1510;51.072;6.678;2023-04-24T11:10:55;199.57;;;191.77;;
3000;SDS011;1510;51.072;6.678;2023-04-24T11:13:25;229.80;;;221.23;;
3000;SDS011;1510;51.072;6.678;2023-04-24T11:18:39;50.43;;;47.43;;
3000;SDS011;1510;51.072;6.678;2023-04-24T11:21:10;81.57;;;77.67;;
3000;SDS011;1510;51.072;6.678;2023-04-24T11:23:39;14.83;;;6.23;;
3000;SDS011;1510;51.072;6.678;2023-04-24T11:26:11;8.90;;;6.23;;
3000;SDS011;1510;51.072;6.678;2023-04-24T11:28:44;7.37;;;5.20;;
3000;SDS011;1510;51.072;6.678;2023-04-24T11:34:09;13.23;;;5.30;;
3000;SDS011;1510;51.072;6.678;2023-04-24T11:36:37;11.30;;;7.30;;
3000;SDS011;1510;51.072;6.678;2023-04-24T11:39:06;11.80;;;5.73;;
3000;SDS011;1510;51.072;6.678;2023-04-24T11:41:33;15.20;;;5.87;;
3000;SDS011;1510;51.072;6.678;2023-04-24T11:44:00;15.00;;;4.60;;
3000;SDS011;1510;51.072;6.678;2023-04-24T11:46:28;9.70;;;4.70;;
3000;SDS011;1510;51.072;6.678;2023-04-24T11:48:57;12.43;;;4.83;;
3000;SDS011;1510;51.072;6.678;2023-04-24T11:51:24;8.00;;;4.80;;
3000;SDS011;1510;51.072;6.678;2023-04-24T11:53:52;12.53;;;4.80;;
3000;SDS011;1510;51.072;6.678;2023-04-24T11:56:22;11.80;;;6.50;;
3000;SDS011;1510;51.072;6.678;2023-04-24T11:58:51;15.77;;;6.77;;
3000;SDS011;1510;51.072;6.678;2023-04-24T12:01:19;10.27;;;4.80;;
3000;SDS011;1510;51.072;6.678;2023-04-24T12:03:49;13.80;;;3.50;;
3000;SDS011;1510;51.072;6.678;2023-04-24T12:06:17;10.00;;;3.90;;
3000;SDS011;1510;51.072;6.678;2023-04-24T12:08:45;6.57;;;2.83;;
3000;SDS011;1510;51.072;6.678;2023-04-24T12:11:14;5.90;;;3.00;;
3000;SDS011;1510;51.072;6.678;2023-04-24T12:13:47;10.50;;;3.87;;
3000;SDS011;1510;51.072;6.678;2023-04-24T12:16:14;8.97;;;4.20;;
3000;SDS011;1510;51.072;6.678;2023-04-24T12:18:42;12.40;;;4.23;;
3000;SDS011;1510;51.072;6.678;2023-04-24T12:21:19;13.50;;;4.37;;
3000;SDS011;1510;51.072;6.678;2023-04-24T12:23:49;10.20;;;3.20;;
3000;SDS011;1510;51.072;6.678;2023-04-24T12:26:17;6.20;;;2.47;;
3000;SDS011;1510;51.072;6.678;2023-04-24T12:28:47;6.07;;;2.60;;
3000;SDS011;1510;51.072;6.678;2023-04-24T12:31:15;8.27;;;3.10;;
3000;SDS011;1510;51.072;6.678;2023-04-24T12:33:43;8.38;;;3.40;;
3000;SDS011;1510;51.072;6.678;2023-04-24T12:36:10;9.23;;;2.90;;
3000;SDS011;1510;51.072;6.678;2023-04-24T12:38:38;9.03;;;2.70;;
3000;SDS011;1510;51.072;6.678;2023-04-24T12:41:10;9.67;;;2.83;;
3000;SDS011;1510;51.072;6.678;2023-04-24T12:43:38;5.83;;;2.13;;
3000;SDS011;1510;51.072;6.678;2023-04-24T12:46:17;6.00;;;2.57;;
3000;SDS011;1510;51.072;6.678;2023-04-24T12:48:44;11.50;;;2.87;;
3000;SDS011;1510;51.072;6.678;2023-04-24T12:51:11;12.83;;;4.83;;
3000;SDS011;1510;51.072;6.678;2023-04-24T12:53:38;10.13;;;3.03;;
3000;SDS011;1510;51.072;6.678;2023-04-24T12:56:05;7.37;;;2.93;;
3000;SDS011;1510;51.072;6.678;2023-04-24T12:58:32;8.13;;;2.47;;
3000;SDS011;1510;51.072;6.678;2023-04-24T13:00:59;16.77;;;2.57;;
3000;SDS011;1510;51.072;6.678;2023-04-24T13:03:27;9.30;;;3.13;;
3000;SDS011;1510;51.072;6.678;2023-04-24T13:05:54;7.45;;;2.92;;
3000;SDS011;1510;51.072;6.678;2023-04-24T13:08:21;8.40;;;3.40;;
3000;SDS011;1510;51.072;6.678;2023-04-24T13:10:48;11.00;;;3.10;;
3000;SDS011;1510;51.072;6.678;2023-04-24T13:13:17;8.50;;;2.80;;
3000;SDS011;1510;51.072;6.678;2023-04-24T13:15:43;7.50;;;2.10;;
3000;SDS011;1510;51.072;6.678;2023-04-24T13:18:10;8.73;;;2.93;;
3000;SDS011;1510;51.072;6.678;2023-04-24T13:20:38;7.93;;;2.50;;
3000;SDS011;1510;51.072;6.678;2023-04-24T13:23:06;12.80;;;3.60;;
3000;SDS011;1510;51.072;6.678;2023-04-24T13:25:34;8.17;;;3.20;;
3000;SDS011;1510;51.072;6.678;2023-04-24T13:28:15;7.70;;;2.90;;
3000;SDS011;1510;51.072;6.678;2023-04-24T13:30:42;5.90;;;2.10;;
3000;SDS011;1510;51.072;6.678;2023-04-24T13:33:09;9.02;;;2.53;;
3000;SDS011;1510;51.072;6.678;2023-04-24T13:35:40;5.47;;;1.77;;
3000;SDS011;1510;51.072;6.678;2023-04-24T13:38:10;11.53;;;3.97;;
3000;SDS011;1510;51.072;6.678;2023-04-24T13:40:37;10.57;;;2.77;;
3000;SDS011;1510;51.072;6.678;2023-04-24T13:43:04;6.67;;;2.30;;
3000;SDS011;1510;51.072;6.678;2023-04-24T13:45:31;9.33;;;2.50;;
3000;SDS011;1510;51.072;6.678;2023-04-24T13:47:58;8.90;;;3.00;;
3000;SDS011;1510;51.072;6.678;2023-04-24T13:50:25;6.80;;;3.37;;
3000;SDS011;1510;51.072;6.678;2023-04-24T13:52:53;6.87;;;3.20;;
3000;SDS011;1510;51.072;6.678;2023-04-24T13:55:21;9.97;;;4.30;;
3000;SDS011;1510;51.072;6.678;2023-04-24T13:57:49;8.90;;;3.00;;
3000;SDS011;1510;51.072;6.678;2023-04-24T14:00:17;6.30;;;2.87;;
3000;SDS011;1510;51.072;6.678;2023-04-24T14:02:45;7.73;;;3.00;;
3000;SDS011;1510;51.072;6.678;2023-04-24T14:05:12;9.40;;;3.53;;
3000;SDS011;1510;51.072;6.678;2023-04-24T14:07:40;9.30;;;3.50;;
3000;SDS011;1510;51.072;6.678;2023-04-24T14:10:08;11.30;;;3.27;;
3000;SDS011;1510;51.072;6.678;2023-04-24T14:12:36;6.03;;;2.87;;
3000;SDS011;1510;51.072;6.678;2023-04-24T14:15:04;5.30;;;2.07;;
3000;SDS011;1510;51.072;6.678;2023-04-24T14:17:39;8.77;;;1.97;;
3000;SDS011;1510;51.072;6.678;2023-04-24T14:20:07;11.77;;;3.07;;
3000;SDS011;1510;51.072;6.678;2023-04-24T14:22:38;6.57;;;2.97;;
3000;SDS011;1510;51.072;6.678;2023-04-24T14:25:09;6.07;;;2.03;;
3000;SDS011;1510;51.072;6.678;2023-04-24T14:27:36;5.30;;;2.37;;
3000;SDS011;1510;51.072;6.678;2023-04-24T14:30:03;7.23;;;2.60;;
3000;SDS011;1510;51.072;6.678;2023-04-24T14:32:40;9.00;;;3.20;;
3000;SDS011;1510;51.072;6.678;2023-04-24T14:35:07;14.73;;;2.83;;
3000;SDS011;1510;51.072;6.678;2023-04-24T14:37:34;9.63;;;2.73;;
3000;SDS011;1510;51.072;6.678;2023-04-24T14:40:02;6.10;;;2.33;;
3000;SDS011;1510;51.072;6.678;2023-04-24T14:42:32;5.30;;;2.10;;
3000;SDS011;1510;51.072;6.678;2023-04-24T14:45:02;10.70;;;4.23;;
3000;SDS011;1510;51.072;6.678;2023-04-24T14:47:29;8.43;;;3.00;;
3000;SDS011;1510;51.072;6.678;2023-04-24T14:49:56;8.97;;;2.57;;
3000;SDS011;1510;51.072;6.678;2023-04-24T14:52:24;4.87;;;1.80;;
3000;SDS011;1510;51.072;6.678;2023-04-24T14:54:51;6.93;;;2.90;;
3000;SDS011;1510;51.072;6.678;2023-04-24T14:57:19;6.37;;;2.40;;
3000;SDS011;1510;51.072;6.678;2023-04-24T14:59:47;7.00;;;2.03;;
3000;SDS011;1510;51.072;6.678;2023-04-24T15:02:14;4.80;;;1.83;;
3000;SDS011;1510;51.072;6.678;2023-04-24T15:04:41;8.27;;;2.03;;
3000;SDS011;1510;51.072;6.678;2023-04-24T15:07:08;8.73;;;3.00;;
3000;SDS011;1510;51.072;6.678;2023-04-24T15:09:35;8.27;;;2.60;;
3000;SDS011;1510;51.072;6.678;2023-04-24T15:12:01;6.33;;;2.33;;
3000;SDS011;1510;51.072;6.678;2023-04-24T15:14:30;6.60;;;2.27;;
3000;SDS011;1510;51.072;6.678;2023-04-24T15:17:01;7.10;;;2.40;;
3000;SDS011;1510;51.072;6.678;2023-04-24T15:19:28;5.77;;;2.37;;
3000;SDS011;1510;51.072;6.678;2023-04-24T15:21:58;7.23;;;2.37;;
3000;SDS011;1510;51.072;6.678;2023-04-24T15:24:25;11.60;;;2.90;;